sensor_id;sensor_type;location;lat;lon;timestamp;P1;durP1;ratioP1;P2;durP2;ratioP2
11018;SDS011;5563;52.296;6.806;2023-02-11T00:01:48;41.77;;;25.30;;
11018;SDS011;5563;52.296;6.806;2023-02-11T00:04:21;42.07;;;27.13;;
11018;SDS011;5563;52.296;6.806;2023-02-11T00:06:48;41.60;;;26.23;;
11018;SDS011;5563;52.296;6.806;2023-02-11T00:09:21;38.03;;;25.47;;
11018;SDS011;5563;52.296;6.806;2023-02-11T00:15:03;36.00;;;23.30;;
11018;SDS011;5563;52.296;6.806;2023-02-11T00:17:47;38.90;;;23.07;;
11018;SDS011;5563;52.296;6.806;2023-02-11T00:23:17;32.37;;;21.50;;
11018;SDS011;5563;52.296;6.806;2023-02-11T00:25:44;39.40;;;23.63;;
11018;SDS011;5563;52.296;6.806;2023-02-11T00:28:20;39.83;;;23.30;;
11018;SDS011;5563;52.296;6.806;2023-02-11T00:34:04;31.90;;;20.80;;
11018;SDS011;5563;52.296;6.806;2023-02-11T00:36:41;34.00;;;20.17;;
11018;SDS011;5563;52.296;6.806;2023-02-11T00:39:18;35.63;;;21.70;;
11018;SDS011;5563;52.296;6.806;2023-02-11T00:41:45;34.10;;;20.33;;
11018;SDS011;5563;52.296;6.806;2023-02-11T00:44:30;31.23;;;19.60;;
11018;SDS011;5563;52.296;6.806;2023-02-11T00:47:03;32.27;;;19.20;;
11018;SDS011;5563;52.296;6.806;2023-02-11T00:49:54;28.00;;;17.77;;
11018;SDS011;5563;52.296;6.806;2023-02-11T00:52:27;31.33;;;20.23;;
11018;SDS011;5563;52.296;6.806;2023-02-11T00:55:14;24.50;;;16.03;;
11018;SDS011;5563;52.296;6.806;2023-02-11T00:57:55;29.58;;;17.52;;
11018;SDS011;5563;52.296;6.806;2023-02-11T01:00:38;27.67;;;17.97;;
11018;SDS011;5563;52.296;6.806;2023-02-11T01:03:08;25.47;;;16.53;;
11018;SDS011;5563;52.296;6.806;2023-02-11T01:05:56;28.57;;;16.17;;
11018;SDS011;5563;52.296;6.806;2023-02-11T01:08:36;26.13;;;15.27;;
11018;SDS011;5563;52.296;6.806;2023-02-11T01:11:12;28.73;;;16.50;;
11018;SDS011;5563;52.296;6.806;2023-02-11T01:13:40;25.13;;;14.37;;
11018;SDS011;5563;52.296;6.806;2023-02-11T01:16:17;22.73;;;15.07;;
11018;SDS011;5563;52.296;6.806;2023-02-11T01:18:45;24.77;;;14.00;;
11018;SDS011;5563;52.296;6.806;2023-02-11T01:21:19;26.33;;;14.57;;
11018;SDS011;5563;52.296;6.806;2023-02-11T01:23:52;26.40;;;14.87;;
11018;SDS011;5563;52.296;6.806;2023-02-11T01:26:25;22.98;;;14.90;;
11018;SDS011;5563;52.296;6.806;2023-02-11T01:28:52;25.83;;;14.90;;
11018;SDS011;5563;52.296;6.806;2023-02-11T01:31:30;24.83;;;14.63;;
11018;SDS011;5563;52.296;6.806;2023-02-11T01:34:03;24.98;;;13.32;;
11018;SDS011;5563;52.296;6.806;2023-02-11T01:36:40;25.50;;;12.57;;
11018;SDS011;5563;52.296;6.806;2023-02-11T01:39:07;22.53;;;12.87;;
11018;SDS011;5563;52.296;6.806;2023-02-11T01:41:40;19.77;;;12.83;;
11018;SDS011;5563;52.296;6.806;2023-02-11T01:44:56;20.17;;;12.13;;
11018;SDS011;5563;52.296;6.806;2023-02-11T01:47:29;22.23;;;11.67;;
11018;SDS011;5563;52.296;6.806;2023-02-11T01:49:56;21.80;;;12.18;;
11018;SDS011;5563;52.296;6.806;2023-02-11T01:52:37;23.40;;;11.83;;
11018;SDS011;5563;52.296;6.806;2023-02-11T01:55:19;19.73;;;12.17;;
11018;SDS011;5563;52.296;6.806;2023-02-11T01:58:11;19.15;;;11.30;;
11018;SDS011;5563;52.296;6.806;2023-02-11T02:00:54;20.85;;;12.52;;
11018;SDS011;5563;52.296;6.806;2023-02-11T02:03:25;24.13;;;12.70;;
11018;SDS011;5563;52.296;6.806;2023-02-11T02:06:25;23.75;;;12.05;;
11018;SDS011;5563;52.296;6.806;2023-02-11T02:09:10;20.23;;;11.10;;
11018;SDS011;5563;52.296;6.806;2023-02-11T02:11:46;19.98;;;11.23;;
11018;SDS011;5563;52.296;6.806;2023-02-11T02:14:20;21.50;;;11.18;;
11018;SDS011;5563;52.296;6.806;2023-02-11T02:16:56;22.20;;;11.63;;
11018;SDS011;5563;52.296;6.806;2023-02-11T02:22:57;17.07;;;10.77;;
11018;SDS011;5563;52.296;6.806;2023-02-11T02:25:44;18.73;;;10.68;;
11018;SDS011;5563;52.296;6.806;2023-02-11T02:38:20;17.10;;;9.60;;
11018;SDS011;5563;52.296;6.806;2023-02-11T02:41:13;17.23;;;9.50;;
11018;SDS011;5563;52.296;6.806;2023-02-11T02:44:05;16.93;;;10.33;;
11018;SDS011;5563;52.296;6.806;2023-02-11T02:46:46;15.53;;;9.57;;
11018;SDS011;5563;52.296;6.806;2023-02-11T02:55:59;20.10;;;11.13;;
11018;SDS011;5563;52.296;6.806;2023-02-11T02:59:49;20.88;;;10.27;;
11018;SDS011;5563;52.296;6.806;2023-02-11T03:10:58;20.67;;;11.33;;
11018;SDS011;5563;52.296;6.806;2023-02-11T03:13:35;20.42;;;11.35;;
11018;SDS011;5563;52.296;6.806;2023-02-11T03:16:26;19.85;;;11.27;;
11018;SDS011;5563;52.296;6.806;2023-02-11T03:19:25;23.63;;;11.35;;
11018;SDS011;5563;52.296;6.806;2023-02-11T03:22:26;19.13;;;9.67;;
11018;SDS011;5563;52.296;6.806;2023-02-11T03:24:59;19.50;;;10.23;;
11018;SDS011;5563;52.296;6.806;2023-02-11T03:27:45;19.73;;;10.00;;
11018;SDS011;5563;52.296;6.806;2023-02-11T03:30:25;21.50;;;11.27;;
11018;SDS011;5563;52.296;6.806;2023-02-11T03:33:10;22.00;;;11.55;;
11018;SDS011;5563;52.296;6.806;2023-02-11T03:35:53;18.17;;;10.68;;
11018;SDS011;5563;52.296;6.806;2023-02-11T03:38:38;20.00;;;12.03;;
11018;SDS011;5563;52.296;6.806;2023-02-11T03:41:11;22.25;;;11.57;;
11018;SDS011;5563;52.296;6.806;2023-02-11T03:44:13;22.00;;;12.07;;
11018;SDS011;5563;52.296;6.806;2023-02-11T03:46:58;20.73;;;11.40;;
11018;SDS011;5563;52.296;6.806;2023-02-11T03:49:53;21.47;;;12.20;;
11018;SDS011;5563;52.296;6.806;2023-02-11T03:52:29;25.10;;;12.55;;
11018;SDS011;5563;52.296;6.806;2023-02-11T03:55:07;20.23;;;11.60;;
11018;SDS011;5563;52.296;6.806;2023-02-11T03:57:46;19.07;;;11.33;;
11018;SDS011;5563;52.296;6.806;2023-02-11T04:00:36;28.88;;;12.40;;
11018;SDS011;5563;52.296;6.806;2023-02-11T04:03:06;19.13;;;10.83;;
11018;SDS011;5563;52.296;6.806;2023-02-11T04:05:46;21.50;;;11.90;;
11018;SDS011;5563;52.296;6.806;2023-02-11T04:08:14;23.98;;;13.13;;
11018;SDS011;5563;52.296;6.806;2023-02-11T04:10:55;22.52;;;12.13;;
11018;SDS011;5563;52.296;6.806;2023-02-11T04:13:22;17.27;;;11.05;;
11018;SDS011;5563;52.296;6.806;2023-02-11T04:15:55;18.35;;;11.70;;
11018;SDS011;5563;52.296;6.806;2023-02-11T04:18:22;16.90;;;11.63;;
11018;SDS011;5563;52.296;6.806;2023-02-11T04:20:55;22.83;;;12.40;;
11018;SDS011;5563;52.296;6.806;2023-02-11T04:23:22;19.30;;;11.90;;
11018;SDS011;5563;52.296;6.806;2023-02-11T04:25:49;16.98;;;10.57;;
11018;SDS011;5563;52.296;6.806;2023-02-11T04:28:28;19.40;;;11.17;;
11018;SDS011;5563;52.296;6.806;2023-02-11T04:31:05;20.80;;;11.37;;
11018;SDS011;5563;52.296;6.806;2023-02-11T04:33:49;18.23;;;11.47;;
11018;SDS011;5563;52.296;6.806;2023-02-11T04:36:19;25.07;;;12.23;;
11018;SDS011;5563;52.296;6.806;2023-02-11T04:39:00;20.73;;;11.43;;
11018;SDS011;5563;52.296;6.806;2023-02-11T04:41:27;20.33;;;12.20;;
11018;SDS011;5563;52.296;6.806;2023-02-11T04:44:06;20.98;;;10.90;;
11018;SDS011;5563;52.296;6.806;2023-02-11T04:46:52;20.13;;;11.57;;
11018;SDS011;5563;52.296;6.806;2023-02-11T04:49:29;25.43;;;11.03;;
11018;SDS011;5563;52.296;6.806;2023-02-11T04:52:16;20.80;;;11.23;;
11018;SDS011;5563;52.296;6.806;2023-02-11T04:54:49;21.53;;;11.67;;
11018;SDS011;5563;52.296;6.806;2023-02-11T04:57:22;20.57;;;11.30;;
11018;SDS011;5563;52.296;6.806;2023-02-11T04:59:55;16.53;;;10.70;;
11018;SDS011;5563;52.296;6.806;2023-02-11T05:02:22;18.00;;;10.03;;
11018;SDS011;5563;52.296;6.806;2023-02-11T05:04:58;19.03;;;11.27;;
11018;SDS011;5563;52.296;6.806;2023-02-11T05:07:27;20.83;;;10.60;;
11018;SDS011;5563;52.296;6.806;2023-02-11T05:09:56;19.60;;;11.13;;
11018;SDS011;5563;52.296;6.806;2023-02-11T05:12:29;16.23;;;10.63;;
11018;SDS011;5563;52.296;6.806;2023-02-11T05:14:56;21.47;;;11.53;;
11018;SDS011;5563;52.296;6.806;2023-02-11T05:17:29;15.73;;;10.70;;
11018;SDS011;5563;52.296;6.806;2023-02-11T05:19:56;20.23;;;10.93;;
11018;SDS011;5563;52.296;6.806;2023-02-11T05:22:29;18.63;;;12.03;;
11018;SDS011;5563;52.296;6.806;2023-02-11T05:24:56;20.57;;;12.23;;
11018;SDS011;5563;52.296;6.806;2023-02-11T05:27:43;19.63;;;11.53;;
11018;SDS011;5563;52.296;6.806;2023-02-11T05:30:09;22.23;;;11.87;;
11018;SDS011;5563;52.296;6.806;2023-02-11T05:32:45;25.30;;;11.63;;
11018;SDS011;5563;52.296;6.806;2023-02-11T05:35:15;18.10;;;10.97;;
11018;SDS011;5563;52.296;6.806;2023-02-11T05:37:51;20.67;;;11.00;;
11018;SDS011;5563;52.296;6.806;2023-02-11T05:40:18;21.00;;;12.17;;
11018;SDS011;5563;52.296;6.806;2023-02-11T05:42:54;19.83;;;12.23;;
11018;SDS011;5563;52.296;6.806;2023-02-11T05:45:27;21.95;;;12.75;;
11018;SDS011;5563;52.296;6.806;2023-02-11T05:48:06;18.23;;;12.13;;
11018;SDS011;5563;52.296;6.806;2023-02-11T05:50:39;23.30;;;13.20;;
11018;SDS011;5563;52.296;6.806;2023-02-11T05:53:12;21.43;;;13.17;;
11018;SDS011;5563;52.296;6.806;2023-02-11T05:55:45;22.90;;;13.10;;
11018;SDS011;5563;52.296;6.806;2023-02-11T05:58:21;23.60;;;12.50;;
11018;SDS011;5563;52.296;6.806;2023-02-11T06:00:58;22.67;;;13.37;;
11018;SDS011;5563;52.296;6.806;2023-02-11T06:03:31;20.80;;;13.37;;
11018;SDS011;5563;52.296;6.806;2023-02-11T06:06:11;25.37;;;14.47;;
11018;SDS011;5563;52.296;6.806;2023-02-11T06:08:48;21.87;;;13.43;;
11018;SDS011;5563;52.296;6.806;2023-02-11T06:11:23;22.37;;;12.93;;
11018;SDS011;5563;52.296;6.806;2023-02-11T06:13:52;25.17;;;14.17;;
11018;SDS011;5563;52.296;6.806;2023-02-11T06:16:28;25.83;;;14.57;;
11018;SDS011;5563;52.296;6.806;2023-02-11T06:18:55;26.93;;;14.93;;
11018;SDS011;5563;52.296;6.806;2023-02-11T06:21:28;21.70;;;15.33;;
11018;SDS011;5563;52.296;6.806;2023-02-11T06:24:31;27.13;;;15.03;;
11018;SDS011;5563;52.296;6.806;2023-02-11T06:27:24;28.73;;;15.17;;
11018;SDS011;5563;52.296;6.806;2023-02-11T06:29:54;25.07;;;15.83;;
11018;SDS011;5563;52.296;6.806;2023-02-11T06:32:28;28.90;;;15.37;;
11018;SDS011;5563;52.296;6.806;2023-02-11T06:35:12;26.60;;;16.07;;
11018;SDS011;5563;52.296;6.806;2023-02-11T06:37:55;28.30;;;16.60;;
11018;SDS011;5563;52.296;6.806;2023-02-11T06:40:24;28.10;;;16.73;;
11018;SDS011;5563;52.296;6.806;2023-02-11T06:42:58;29.07;;;17.57;;
11018;SDS011;5563;52.296;6.806;2023-02-11T06:45:34;31.50;;;17.37;;
11018;SDS011;5563;52.296;6.806;2023-02-11T06:48:15;25.17;;;16.10;;
11018;SDS011;5563;52.296;6.806;2023-02-11T06:50:42;27.70;;;17.17;;
11018;SDS011;5563;52.296;6.806;2023-02-11T06:53:14;26.50;;;16.90;;
11018;SDS011;5563;52.296;6.806;2023-02-11T06:55:50;27.37;;;17.13;;
11018;SDS011;5563;52.296;6.806;2023-02-11T06:58:17;30.63;;;18.23;;
11018;SDS011;5563;52.296;6.806;2023-02-11T07:00:51;30.70;;;18.70;;
11018;SDS011;5563;52.296;6.806;2023-02-11T07:03:22;30.13;;;18.80;;
11018;SDS011;5563;52.296;6.806;2023-02-11T07:05:56;27.92;;;17.58;;
11018;SDS011;5563;52.296;6.806;2023-02-11T07:08:28;29.93;;;17.87;;
11018;SDS011;5563;52.296;6.806;2023-02-11T07:11:26;26.93;;;18.33;;
11018;SDS011;5563;52.296;6.806;2023-02-11T07:14:10;27.95;;;17.98;;
11018;SDS011;5563;52.296;6.806;2023-02-11T07:16:49;34.87;;;19.50;;
11018;SDS011;5563;52.296;6.806;2023-02-11T07:19:15;41.92;;;20.40;;
11018;SDS011;5563;52.296;6.806;2023-02-11T07:24:41;31.02;;;19.95;;
11018;SDS011;5563;52.296;6.806;2023-02-11T07:27:18;31.93;;;19.10;;
11018;SDS011;5563;52.296;6.806;2023-02-11T07:29:56;34.60;;;19.67;;
11018;SDS011;5563;52.296;6.806;2023-02-11T07:32:32;33.45;;;21.08;;
11018;SDS011;5563;52.296;6.806;2023-02-11T07:34:59;33.05;;;19.58;;
11018;SDS011;5563;52.296;6.806;2023-02-11T07:37:35;37.72;;;21.15;;
11018;SDS011;5563;52.296;6.806;2023-02-11T07:40:02;34.73;;;21.37;;
11018;SDS011;5563;52.296;6.806;2023-02-11T07:42:42;35.33;;;20.27;;
11018;SDS011;5563;52.296;6.806;2023-02-11T07:45:16;33.85;;;21.42;;
11018;SDS011;5563;52.296;6.806;2023-02-11T07:47:58;39.77;;;21.70;;
11018;SDS011;5563;52.296;6.806;2023-02-11T07:50:38;33.17;;;19.03;;
11018;SDS011;5563;52.296;6.806;2023-02-11T07:53:05;33.90;;;22.60;;
11018;SDS011;5563;52.296;6.806;2023-02-11T07:55:38;33.20;;;22.10;;
11018;SDS011;5563;52.296;6.806;2023-02-11T07:58:08;36.50;;;21.13;;
11018;SDS011;5563;52.296;6.806;2023-02-11T08:00:41;33.97;;;20.33;;
11018;SDS011;5563;52.296;6.806;2023-02-11T08:03:08;36.50;;;21.53;;
11018;SDS011;5563;52.296;6.806;2023-02-11T08:05:58;33.28;;;22.33;;
11018;SDS011;5563;52.296;6.806;2023-02-11T08:08:41;34.67;;;21.10;;
11018;SDS011;5563;52.296;6.806;2023-02-11T08:11:15;37.10;;;21.75;;
11018;SDS011;5563;52.296;6.806;2023-02-11T08:13:58;35.17;;;22.55;;
11018;SDS011;5563;52.296;6.806;2023-02-11T08:16:32;35.25;;;22.58;;
11018;SDS011;5563;52.296;6.806;2023-02-11T08:19:19;36.13;;;21.20;;
11018;SDS011;5563;52.296;6.806;2023-02-11T08:21:55;39.70;;;23.23;;
11018;SDS011;5563;52.296;6.806;2023-02-11T08:24:22;39.80;;;22.10;;
11018;SDS011;5563;52.296;6.806;2023-02-11T08:26:55;35.92;;;22.98;;
11018;SDS011;5563;52.296;6.806;2023-02-11T08:29:28;38.58;;;22.48;;
11018;SDS011;5563;52.296;6.806;2023-02-11T08:32:07;33.17;;;21.58;;
11018;SDS011;5563;52.296;6.806;2023-02-11T08:34:34;40.22;;;21.35;;
11018;SDS011;5563;52.296;6.806;2023-02-11T08:37:17;37.20;;;22.77;;
11018;SDS011;5563;52.296;6.806;2023-02-11T08:39:48;38.77;;;22.67;;
11018;SDS011;5563;52.296;6.806;2023-02-11T08:42:29;34.63;;;21.85;;
11018;SDS011;5563;52.296;6.806;2023-02-11T08:45:05;38.70;;;22.83;;
11018;SDS011;5563;52.296;6.806;2023-02-11T08:47:46;33.08;;;21.55;;
11018;SDS011;5563;52.296;6.806;2023-02-11T08:50:51;31.73;;;22.20;;
11018;SDS011;5563;52.296;6.806;2023-02-11T08:53:27;36.20;;;22.20;;
11018;SDS011;5563;52.296;6.806;2023-02-11T08:55:54;36.75;;;22.77;;
11018;SDS011;5563;52.296;6.806;2023-02-11T08:58:21;38.00;;;23.53;;
11018;SDS011;5563;52.296;6.806;2023-02-11T09:00:57;35.65;;;22.52;;
11018;SDS011;5563;52.296;6.806;2023-02-11T09:03:24;34.95;;;21.60;;
11018;SDS011;5563;52.296;6.806;2023-02-11T09:06:09;34.42;;;22.08;;
11018;SDS011;5563;52.296;6.806;2023-02-11T09:08:38;36.30;;;21.85;;
11018;SDS011;5563;52.296;6.806;2023-02-11T09:14:17;35.92;;;22.05;;
11018;SDS011;5563;52.296;6.806;2023-02-11T09:16:55;34.78;;;22.52;;
11018;SDS011;5563;52.296;6.806;2023-02-11T09:19:23;33.30;;;21.10;;
11018;SDS011;5563;52.296;6.806;2023-02-11T09:21:56;34.88;;;22.13;;
11018;SDS011;5563;52.296;6.806;2023-02-11T09:24:24;37.03;;;23.13;;
11018;SDS011;5563;52.296;6.806;2023-02-11T09:26:57;36.28;;;22.63;;
11018;SDS011;5563;52.296;6.806;2023-02-11T09:29:24;33.03;;;23.20;;
11018;SDS011;5563;52.296;6.806;2023-02-11T09:32:14;34.38;;;21.73;;
11018;SDS011;5563;52.296;6.806;2023-02-11T09:34:55;36.78;;;24.05;;
11018;SDS011;5563;52.296;6.806;2023-02-11T09:37:31;34.50;;;22.60;;
11018;SDS011;5563;52.296;6.806;2023-02-11T09:40:04;33.63;;;20.95;;
11018;SDS011;5563;52.296;6.806;2023-02-11T09:43:10;32.45;;;20.58;;
11018;SDS011;5563;52.296;6.806;2023-02-11T09:45:59;34.78;;;21.35;;
11018;SDS011;5563;52.296;6.806;2023-02-11T09:48:37;35.20;;;21.92;;
11018;SDS011;5563;52.296;6.806;2023-02-11T09:54:13;34.30;;;21.23;;
11018;SDS011;5563;52.296;6.806;2023-02-11T09:56:52;34.15;;;20.65;;
11018;SDS011;5563;52.296;6.806;2023-02-11T09:59:32;33.72;;;21.80;;
11018;SDS011;5563;52.296;6.806;2023-02-11T10:02:05;32.83;;;21.02;;
11018;SDS011;5563;52.296;6.806;2023-02-11T10:10:41;33.72;;;20.98;;
11018;SDS011;5563;52.296;6.806;2023-02-11T10:22:18;34.08;;;22.23;;
11018;SDS011;5563;52.296;6.806;2023-02-11T10:24:57;34.35;;;21.92;;
11018;SDS011;5563;52.296;6.806;2023-02-11T10:27:40;31.23;;;20.52;;
11018;SDS011;5563;52.296;6.806;2023-02-11T10:30:33;35.13;;;22.25;;
11018;SDS011;5563;52.296;6.806;2023-02-11T10:33:42;34.63;;;21.65;;
11018;SDS011;5563;52.296;6.806;2023-02-11T10:36:42;33.72;;;22.90;;
11018;SDS011;5563;52.296;6.806;2023-02-11T10:39:14;30.92;;;21.83;;
11018;SDS011;5563;52.296;6.806;2023-02-11T10:42:00;31.00;;;21.13;;
11018;SDS011;5563;52.296;6.806;2023-02-11T10:45:01;36.05;;;22.38;;
11018;SDS011;5563;52.296;6.806;2023-02-11T10:47:39;31.55;;;20.80;;
11018;SDS011;5563;52.296;6.806;2023-02-11T10:50:27;34.88;;;22.45;;
11018;SDS011;5563;52.296;6.806;2023-02-11T10:56:09;33.20;;;19.95;;
11018;SDS011;5563;52.296;6.806;2023-02-11T11:01:56;34.22;;;21.92;;
11018;SDS011;5563;52.296;6.806;2023-02-11T11:09:47;31.30;;;21.10;;
11018;SDS011;5563;52.296;6.806;2023-02-11T11:12:28;32.28;;;21.67;;
11018;SDS011;5563;52.296;6.806;2023-02-11T11:18:40;39.13;;;21.67;;
11018;SDS011;5563;52.296;6.806;2023-02-11T11:20:58;32.78;;;21.92;;
11018;SDS011;5563;52.296;6.806;2023-02-11T11:23:40;30.35;;;20.05;;
11018;SDS011;5563;52.296;6.806;2023-02-11T11:26:14;30.88;;;20.95;;
11018;SDS011;5563;52.296;6.806;2023-02-11T11:29:12;32.15;;;21.42;;
11018;SDS011;5563;52.296;6.806;2023-02-11T11:31:46;29.33;;;19.98;;
11018;SDS011;5563;52.296;6.806;2023-02-11T11:34:32;28.35;;;18.27;;
11018;SDS011;5563;52.296;6.806;2023-02-11T11:40:20;30.95;;;19.25;;
11018;SDS011;5563;52.296;6.806;2023-02-11T11:43:14;31.75;;;20.77;;
11018;SDS011;5563;52.296;6.806;2023-02-11T11:45:58;27.55;;;20.60;;
11018;SDS011;5563;52.296;6.806;2023-02-11T11:51:25;28.45;;;20.92;;
11018;SDS011;5563;52.296;6.806;2023-02-11T11:54:02;32.45;;;21.27;;
11018;SDS011;5563;52.296;6.806;2023-02-11T11:56:41;28.92;;;20.85;;
11018;SDS011;5563;52.296;6.806;2023-02-11T11:59:54;27.70;;;20.58;;
11018;SDS011;5563;52.296;6.806;2023-02-11T12:20:57;26.77;;;20.17;;
11018;SDS011;5563;52.296;6.806;2023-02-11T12:24:13;22.77;;;17.80;;
11018;SDS011;5563;52.296;6.806;2023-02-11T12:32:38;22.08;;;12.68;;
11018;SDS011;5563;52.296;6.806;2023-02-11T12:35:37;16.85;;;13.02;;
11018;SDS011;5563;52.296;6.806;2023-02-11T12:57:20;12.38;;;9.98;;
11018;SDS011;5563;52.296;6.806;2023-02-11T13:02:55;12.70;;;8.38;;
11018;SDS011;5563;52.296;6.806;2023-02-11T13:06:09;14.07;;;9.15;;
11018;SDS011;5563;52.296;6.806;2023-02-11T13:08:51;13.57;;;9.93;;
11018;SDS011;5563;52.296;6.806;2023-02-11T13:11:40;12.40;;;9.65;;
11018;SDS011;5563;52.296;6.806;2023-02-11T13:14:21;15.52;;;9.75;;
11018;SDS011;5563;52.296;6.806;2023-02-11T13:17:02;12.57;;;9.15;;
11018;SDS011;5563;52.296;6.806;2023-02-11T13:19:43;13.48;;;8.85;;
11018;SDS011;5563;52.296;6.806;2023-02-11T13:22:32;8.95;;;7.25;;
11018;SDS011;5563;52.296;6.806;2023-02-11T13:28:40;9.98;;;6.85;;
11018;SDS011;5563;52.296;6.806;2023-02-11T13:31:19;9.52;;;6.60;;
11018;SDS011;5563;52.296;6.806;2023-02-11T13:33:53;8.50;;;6.20;;
11018;SDS011;5563;52.296;6.806;2023-02-11T13:36:23;8.80;;;6.32;;
11018;SDS011;5563;52.296;6.806;2023-02-11T13:39:02;8.30;;;6.38;;
11018;SDS011;5563;52.296;6.806;2023-02-11T13:41:32;8.57;;;5.97;;
11018;SDS011;5563;52.296;6.806;2023-02-11T13:49:37;7.85;;;5.75;;
11018;SDS011;5563;52.296;6.806;2023-02-11T13:57:41;7.95;;;5.32;;
11018;SDS011;5563;52.296;6.806;2023-02-11T14:06:17;7.80;;;5.60;;
11018;SDS011;5563;52.296;6.806;2023-02-11T14:17:45;7.68;;;5.50;;
11018;SDS011;5563;52.296;6.806;2023-02-11T14:20:34;6.00;;;5.40;;
11018;SDS011;5563;52.296;6.806;2023-02-11T14:23:19;9.18;;;5.60;;
11018;SDS011;5563;52.296;6.806;2023-02-11T14:25:59;12.20;;;5.60;;
11018;SDS011;5563;52.296;6.806;2023-02-11T14:31:53;8.45;;;5.00;;
11018;SDS011;5563;52.296;6.806;2023-02-11T14:34:43;7.22;;;4.70;;
11018;SDS011;5563;52.296;6.806;2023-02-11T14:40:59;6.63;;;4.70;;
11018;SDS011;5563;52.296;6.806;2023-02-11T14:46:29;5.32;;;4.18;;
11018;SDS011;5563;52.296;6.806;2023-02-11T14:49:28;6.65;;;4.22;;
11018;SDS011;5563;52.296;6.806;2023-02-11T14:52:15;6.60;;;4.97;;
11018;SDS011;5563;52.296;6.806;2023-02-11T14:55:14;8.43;;;4.50;;
11018;SDS011;5563;52.296;6.806;2023-02-11T14:58:05;5.30;;;4.20;;
11018;SDS011;5563;52.296;6.806;2023-02-11T15:00:48;6.85;;;4.32;;
11018;SDS011;5563;52.296;6.806;2023-02-11T15:03:23;5.25;;;4.75;;
11018;SDS011;5563;52.296;6.806;2023-02-11T15:06:03;5.57;;;4.53;;
11018;SDS011;5563;52.296;6.806;2023-02-11T15:08:34;5.32;;;4.45;;
11018;SDS011;5563;52.296;6.806;2023-02-11T15:11:11;7.68;;;4.63;;
11018;SDS011;5563;52.296;6.806;2023-02-11T15:13:39;6.80;;;4.45;;
11018;SDS011;5563;52.296;6.806;2023-02-11T15:16:24;10.43;;;4.85;;
11018;SDS011;5563;52.296;6.806;2023-02-11T15:18:55;6.53;;;5.18;;
11018;SDS011;5563;52.296;6.806;2023-02-11T15:21:33;6.22;;;5.20;;
11018;SDS011;5563;52.296;6.806;2023-02-11T15:24:17;7.50;;;5.00;;
11018;SDS011;5563;52.296;6.806;2023-02-11T15:29:37;5.57;;;4.50;;
11018;SDS011;5563;52.296;6.806;2023-02-11T15:32:19;6.88;;;4.40;;
11018;SDS011;5563;52.296;6.806;2023-02-11T15:34:55;7.50;;;4.82;;
11018;SDS011;5563;52.296;6.806;2023-02-11T15:37:30;8.82;;;4.47;;
11018;SDS011;5563;52.296;6.806;2023-02-11T15:40:08;9.95;;;4.72;;
11018;SDS011;5563;52.296;6.806;2023-02-11T15:42:51;7.40;;;4.75;;
11018;SDS011;5563;52.296;6.806;2023-02-11T15:45:27;6.47;;;4.72;;
11018;SDS011;5563;52.296;6.806;2023-02-11T15:48:34;6.45;;;4.88;;
11018;SDS011;5563;52.296;6.806;2023-02-11T15:51:45;6.78;;;4.18;;
11018;SDS011;5563;52.296;6.806;2023-02-11T15:54:07;6.63;;;4.43;;
11018;SDS011;5563;52.296;6.806;2023-02-11T15:56:52;6.68;;;4.07;;
11018;SDS011;5563;52.296;6.806;2023-02-11T16:02:08;6.18;;;4.15;;
11018;SDS011;5563;52.296;6.806;2023-02-11T16:04:49;6.65;;;4.00;;
11018;SDS011;5563;52.296;6.806;2023-02-11T16:07:45;8.00;;;4.13;;
11018;SDS011;5563;52.296;6.806;2023-02-11T16:10:30;5.20;;;4.28;;
11018;SDS011;5563;52.296;6.806;2023-02-11T16:13:03;8.15;;;4.50;;
11018;SDS011;5563;52.296;6.806;2023-02-11T16:15:53;5.47;;;4.03;;
11018;SDS011;5563;52.296;6.806;2023-02-11T16:19:15;7.65;;;4.25;;
11018;SDS011;5563;52.296;6.806;2023-02-11T16:21:51;6.97;;;4.35;;
11018;SDS011;5563;52.296;6.806;2023-02-11T16:24:30;6.20;;;3.83;;
11018;SDS011;5563;52.296;6.806;2023-02-11T16:27:17;6.70;;;3.90;;
11018;SDS011;5563;52.296;6.806;2023-02-11T16:29:55;5.72;;;4.13;;
11018;SDS011;5563;52.296;6.806;2023-02-11T16:32:29;4.95;;;4.03;;
11018;SDS011;5563;52.296;6.806;2023-02-11T16:34:57;7.82;;;4.38;;
11018;SDS011;5563;52.296;6.806;2023-02-11T16:37:32;7.95;;;4.30;;
11018;SDS011;5563;52.296;6.806;2023-02-11T16:40:07;6.53;;;4.05;;
11018;SDS011;5563;52.296;6.806;2023-02-11T16:42:35;4.65;;;4.10;;
11018;SDS011;5563;52.296;6.806;2023-02-11T16:45:14;6.40;;;3.80;;
11018;SDS011;5563;52.296;6.806;2023-02-11T16:47:58;7.53;;;3.92;;
11018;SDS011;5563;52.296;6.806;2023-02-11T16:50:42;7.65;;;3.85;;
11018;SDS011;5563;52.296;6.806;2023-02-11T16:53:11;6.97;;;4.45;;
11018;SDS011;5563;52.296;6.806;2023-02-11T16:55:49;7.35;;;4.72;;
11018;SDS011;5563;52.296;6.806;2023-02-11T16:58:31;6.20;;;4.05;;
11018;SDS011;5563;52.296;6.806;2023-02-11T17:01:06;6.07;;;4.22;;
11018;SDS011;5563;52.296;6.806;2023-02-11T17:03:36;9.27;;;4.70;;
11018;SDS011;5563;52.296;6.806;2023-02-11T17:06:13;7.03;;;4.25;;
11018;SDS011;5563;52.296;6.806;2023-02-11T17:08:43;7.78;;;4.50;;
11018;SDS011;5563;52.296;6.806;2023-02-11T17:11:16;6.40;;;4.43;;
11018;SDS011;5563;52.296;6.806;2023-02-11T17:13:48;7.05;;;3.80;;
11018;SDS011;5563;52.296;6.806;2023-02-11T17:16:22;5.65;;;4.18;;
11018;SDS011;5563;52.296;6.806;2023-02-11T17:18:57;8.77;;;4.45;;
11018;SDS011;5563;52.296;6.806;2023-02-11T17:21:32;7.32;;;4.70;;
11018;SDS011;5563;52.296;6.806;2023-02-11T17:24:09;7.22;;;5.10;;
11018;SDS011;5563;52.296;6.806;2023-02-11T17:26:37;8.90;;;4.88;;
11018;SDS011;5563;52.296;6.806;2023-02-11T17:29:22;7.78;;;5.15;;
11018;SDS011;5563;52.296;6.806;2023-02-11T17:31:53;8.45;;;5.20;;
11018;SDS011;5563;52.296;6.806;2023-02-11T17:34:45;13.32;;;5.70;;
11018;SDS011;5563;52.296;6.806;2023-02-11T17:37:12;8.45;;;5.50;;
11018;SDS011;5563;52.296;6.806;2023-02-11T17:39:45;8.93;;;4.80;;
11018;SDS011;5563;52.296;6.806;2023-02-11T17:42:11;6.47;;;5.13;;
11018;SDS011;5563;52.296;6.806;2023-02-11T17:44:46;9.98;;;4.97;;
11018;SDS011;5563;52.296;6.806;2023-02-11T17:47:19;7.90;;;4.88;;
11018;SDS011;5563;52.296;6.806;2023-02-11T17:49:53;5.75;;;5.13;;
11018;SDS011;5563;52.296;6.806;2023-02-11T17:52:19;7.38;;;4.93;;
11018;SDS011;5563;52.296;6.806;2023-02-11T17:54:53;7.82;;;4.82;;
11018;SDS011;5563;52.296;6.806;2023-02-11T17:57:27;8.55;;;5.13;;
11018;SDS011;5563;52.296;6.806;2023-02-11T17:59:53;8.60;;;5.53;;
11018;SDS011;5563;52.296;6.806;2023-02-11T18:02:27;9.70;;;5.53;;
11018;SDS011;5563;52.296;6.806;2023-02-11T18:04:54;8.45;;;5.72;;
11018;SDS011;5563;52.296;6.806;2023-02-11T18:07:29;7.32;;;5.68;;
11018;SDS011;5563;52.296;6.806;2023-02-11T18:09:55;7.70;;;5.40;;
11018;SDS011;5563;52.296;6.806;2023-02-11T18:12:29;7.13;;;5.30;;
11018;SDS011;5563;52.296;6.806;2023-02-11T18:14:58;9.68;;;5.55;;
11018;SDS011;5563;52.296;6.806;2023-02-11T18:17:31;7.18;;;5.28;;
11018;SDS011;5563;52.296;6.806;2023-02-11T18:20:00;8.05;;;5.20;;
11018;SDS011;5563;52.296;6.806;2023-02-11T18:22:39;8.27;;;6.07;;
11018;SDS011;5563;52.296;6.806;2023-02-11T18:25:07;9.70;;;5.82;;
11018;SDS011;5563;52.296;6.806;2023-02-11T18:27:45;6.57;;;5.57;;
11018;SDS011;5563;52.296;6.806;2023-02-11T18:30:15;8.98;;;5.93;;
11018;SDS011;5563;52.296;6.806;2023-02-11T18:32:53;9.32;;;5.80;;
11018;SDS011;5563;52.296;6.806;2023-02-11T18:35:21;7.70;;;5.70;;
11018;SDS011;5563;52.296;6.806;2023-02-11T18:37:55;10.82;;;6.07;;
11018;SDS011;5563;52.296;6.806;2023-02-11T18:40:22;7.85;;;5.88;;
11018;SDS011;5563;52.296;6.806;2023-02-11T18:42:48;6.05;;;5.10;;